Terminal Aerodrome Forecast
Issued by NWS

Home | Current Version | Previous Version | Text Only | Print | Product List | Glossary On
Versions: 1 2 3 4 5 6 7 8 9 10 11 12 13
000
FTUS44 KMAF 021100
TAFCNM
TAF
KCNM 021120Z 0212/0312 14007KT P6SM SKC
     FM030100 15011G18KT P6SM SKC
     FM030700 16006KT P6SM SKC=

USA.gov is the U.S. government's official web portal to all federal, state and local government web resources and services.